createdAt,value
2017-08-03T00:01:03.787Z,84.00
2017-08-03T00:03:31.663Z,84.50
2017-08-03T00:06:03.351Z,85.00
2017-08-03T00:08:30.862Z,84.90
2017-08-03T00:10:58.385Z,85.60
2017-08-03T00:13:26.036Z,85.60
2017-08-03T00:15:53.548Z,85.60
2017-08-03T00:18:21.060Z,85.60
2017-08-03T00:20:56.390Z,86.00
2017-08-03T00:23:23.902Z,86.10
2017-08-03T00:25:55.356Z,85.70
2017-08-03T00:28:22.895Z,84.90
2017-08-03T00:30:50.431Z,84.70
2017-08-03T00:33:18.270Z,85.40
2017-08-03T00:35:48.812Z,85.40
2017-08-03T00:38:16.323Z,85.10
2017-08-03T00:40:43.824Z,85.10
2017-08-03T00:43:11.636Z,85.40
2017-08-03T00:45:39.367Z,85.30
2017-08-03T00:48:06.867Z,85.80
2017-08-03T00:50:42.161Z,85.10
2017-08-03T00:53:09.736Z,85.50
2017-08-03T00:55:37.645Z,85.30
2017-08-03T00:58:05.453Z,84.40
2017-08-03T01:00:33.003Z,84.10
2017-08-03T01:03:00.512Z,84.60
2017-08-03T01:05:28.114Z,85.10
2017-08-03T01:07:55.699Z,85.10
2017-08-03T01:10:23.275Z,86.30
2017-08-03T01:12:50.787Z,85.70
2017-08-03T01:15:18.359Z,85.40
2017-08-03T01:17:45.934Z,85.10
2017-08-03T01:20:13.478Z,85.00
2017-08-03T01:22:49.551Z,85.10
2017-08-03T01:25:17.208Z,85.60
2017-08-03T01:27:44.732Z,85.20
2017-08-03T01:30:15.588Z,85.20
2017-08-03T01:32:43.104Z,85.30
2017-08-03T01:35:10.635Z,85.80
2017-08-03T01:37:41.988Z,85.80
2017-08-03T01:40:10.056Z,85.30
2017-08-03T01:42:37.605Z,85.70
2017-08-03T01:45:05.108Z,85.90
2017-08-03T01:47:32.664Z,86.60
2017-08-03T01:50:00.283Z,86.50
2017-08-03T01:52:30.913Z,86.30
2017-08-03T01:54:58.435Z,86.70
2017-08-03T01:57:25.951Z,86.10
2017-08-03T01:59:53.690Z,85.90
2017-08-03T02:02:21.511Z,85.20
2017-08-03T02:04:49.787Z,85.00
2017-08-03T02:07:25.280Z,85.80
2017-08-03T02:09:52.809Z,85.20
2017-08-03T02:12:20.383Z,85.50
2017-08-03T02:14:47.935Z,85.10
2017-08-03T02:17:15.695Z,84.30
2017-08-03T02:19:43.509Z,84.50
2017-08-03T02:22:14.017Z,84.80
2017-08-03T02:24:44.719Z,84.50
2017-08-03T02:27:12.227Z,84.40
2017-08-03T02:29:39.750Z,84.80
2017-08-03T02:32:07.498Z,84.10
2017-08-03T02:34:35.309Z,85.00
2017-08-03T02:37:02.829Z,85.20
2017-08-03T02:39:30.397Z,85.70
2017-08-03T02:41:58.077Z,85.70
2017-08-03T02:44:25.583Z,85.80
2017-08-03T02:46:53.131Z,86.00
2017-08-03T02:49:20.640Z,85.80
2017-08-03T02:51:51.865Z,85.80
2017-08-03T02:54:23.303Z,85.80
2017-08-03T02:56:51.587Z,85.00
2017-08-03T02:59:22.762Z,85.00
2017-08-03T03:01:50.296Z,84.60
2017-08-03T03:04:17.944Z,83.90
2017-08-03T03:06:48.937Z,83.40
2017-08-03T03:09:16.447Z,83.20
2017-08-03T03:11:43.967Z,83.40
2017-08-03T03:14:11.523Z,83.30
2017-08-03T03:16:39.037Z,83.50
2017-08-03T03:19:06.733Z,83.70
2017-08-03T03:21:37.435Z,84.00
2017-08-03T03:24:04.983Z,83.90
2017-08-03T03:26:36.232Z,83.40
2017-08-03T03:29:03.926Z,83.20
2017-08-03T03:31:31.472Z,83.30
2017-08-03T03:33:59.137Z,83.40
2017-08-03T03:36:26.651Z,82.50
2017-08-03T03:38:54.943Z,83.40
2017-08-03T03:41:26.115Z,82.70
2017-08-03T03:43:53.674Z,83.00
2017-08-03T03:46:21.336Z,83.10
2017-08-03T03:48:48.903Z,83.30
2017-08-03T03:51:16.408Z,83.90
2017-08-03T03:53:43.920Z,84.30
2017-08-03T03:56:14.694Z,84.80
2017-08-03T03:58:49.700Z,84.80
2017-08-03T04:01:17.257Z,84.80
2017-08-03T04:03:44.810Z,84.20
2017-08-03T04:06:12.351Z,84.30
2017-08-03T04:08:39.868Z,84.30
2017-08-03T04:11:10.875Z,84.00
2017-08-03T04:13:38.429Z,84.00
2017-08-03T04:16:05.958Z,83.90
2017-08-03T04:18:33.653Z,83.70
2017-08-03T04:21:01.414Z,83.60
2017-08-03T04:23:32.889Z,83.40
2017-08-03T04:26:00.630Z,83.50
2017-08-03T04:28:28.387Z,83.50
2017-08-03T04:30:55.940Z,83.40
2017-08-03T04:33:23.716Z,83.10
2017-08-03T04:35:51.663Z,82.60
2017-08-03T04:38:19.203Z,82.00
2017-08-03T04:40:55.196Z,81.40
2017-08-03T04:43:25.733Z,81.30
2017-08-03T04:45:53.243Z,81.00
2017-08-03T04:48:21.571Z,79.70
2017-08-03T04:50:49.096Z,79.70
2017-08-03T04:53:19.859Z,78.70
2017-08-03T04:55:52.071Z,78.20
2017-08-03T04:58:19.595Z,77.60
2017-08-03T05:00:47.146Z,77.30
2017-08-03T05:03:14.653Z,77.30
2017-08-03T05:05:43.309Z,77.90
2017-08-03T05:08:11.354Z,77.90
2017-08-03T05:10:38.867Z,78.40
2017-08-03T05:13:07.496Z,79.90
2017-08-03T05:15:35.007Z,79.20
2017-08-03T05:18:02.565Z,80.00
2017-08-03T05:20:30.088Z,79.30
2017-08-03T05:22:57.608Z,79.70
2017-08-03T05:25:29.416Z,79.70
2017-08-03T05:27:56.992Z,79.90
2017-08-03T05:30:24.530Z,81.20
2017-08-03T05:32:52.044Z,82.20
2017-08-03T05:35:19.581Z,82.60
2017-08-03T05:37:47.877Z,82.90
2017-08-03T05:40:15.475Z,83.00
2017-08-03T05:42:43.125Z,82.60
2017-08-03T05:45:10.693Z,82.60
2017-08-03T05:47:38.364Z,82.50
2017-08-03T05:50:05.956Z,81.90
2017-08-03T05:52:33.675Z,82.00
2017-08-03T05:55:01.187Z,81.70
2017-08-03T05:57:33.094Z,82.10
2017-08-03T06:00:00.631Z,82.70
2017-08-03T06:02:28.292Z,81.60
2017-08-03T06:04:56.074Z,82.40
2017-08-03T06:07:24.139Z,82.20
2017-08-03T06:09:56.213Z,83.30
2017-08-03T06:12:23.728Z,83.90
2017-08-03T06:14:52.052Z,83.80
2017-08-03T06:17:19.810Z,83.70
2017-08-03T06:19:47.322Z,84.70
2017-08-03T06:22:16.511Z,83.60
2017-08-03T06:24:48.152Z,83.60
2017-08-03T06:27:25.655Z,82.30
2017-08-03T06:29:53.485Z,82.40
2017-08-03T06:32:21.016Z,81.60
2017-08-03T06:34:48.615Z,80.60
2017-08-03T06:37:16.130Z,80.10
2017-08-03T06:39:44.406Z,79.40
2017-08-03T06:42:15.567Z,79.40
2017-08-03T06:44:43.141Z,78.30
2017-08-03T06:47:10.651Z,77.50
2017-08-03T06:49:38.260Z,77.60
2017-08-03T06:52:06.031Z,78.00
2017-08-03T06:54:33.528Z,77.80
2017-08-03T06:57:04.728Z,77.60
2017-08-03T06:59:35.850Z,78.40
2017-08-03T07:02:03.440Z,77.90
2017-08-03T07:04:31.003Z,77.90
2017-08-03T07:06:58.508Z,77.30
2017-08-03T07:09:26.799Z,78.70
2017-08-03T07:11:54.351Z,78.80
2017-08-03T07:14:22.632Z,78.30
2017-08-03T07:16:50.184Z,78.20
2017-08-03T07:19:18.478Z,79.20
2017-08-03T07:21:46.031Z,79.20
2017-08-03T07:24:13.857Z,80.30
2017-08-03T07:26:44.243Z,79.70
2017-08-03T07:29:12.000Z,78.50
2017-08-03T07:31:43.871Z,77.80
2017-08-03T07:34:11.376Z,77.70
2017-08-03T07:36:42.081Z,77.80
2017-08-03T07:39:09.748Z,78.70
2017-08-03T07:41:40.684Z,78.20
2017-08-03T07:44:08.187Z,78.40
2017-08-03T07:46:36.808Z,78.60
2017-08-03T07:49:04.343Z,78.60
2017-08-03T07:51:31.884Z,79.00
2017-08-03T07:53:59.791Z,79.20
2017-08-03T07:56:27.469Z,79.30
2017-08-03T07:58:54.979Z,80.00
2017-08-03T08:01:22.537Z,80.80
2017-08-03T08:03:50.220Z,80.80
2017-08-03T08:06:17.945Z,80.80
2017-08-03T08:08:45.487Z,80.70
2017-08-03T08:11:13.013Z,81.40
2017-08-03T08:13:53.012Z,82.30
2017-08-03T08:16:20.967Z,82.90
2017-08-03T08:18:53.094Z,83.00
2017-08-03T08:21:20.627Z,82.30
2017-08-03T08:23:48.126Z,80.90
2017-08-03T08:26:15.773Z,81.10
2017-08-03T08:28:43.307Z,80.60
2017-08-03T08:31:14.991Z,79.80
2017-08-03T08:33:42.503Z,79.20
2017-08-03T08:36:10.827Z,78.00
2017-08-03T08:38:38.559Z,77.90
2017-08-03T08:41:06.397Z,78.10
2017-08-03T08:43:37.860Z,79.00
2017-08-03T08:46:05.401Z,79.30
2017-08-03T08:48:32.942Z,80.00
2017-08-03T08:51:00.464Z,80.40
2017-08-03T08:53:28.028Z,80.10
2017-08-03T08:55:55.568Z,79.60
2017-08-03T08:58:23.455Z,79.00
2017-08-03T09:00:51.084Z,79.40
2017-08-03T09:03:18.665Z,79.50
2017-08-03T09:05:46.224Z,80.20
2017-08-03T09:08:13.908Z,79.80
2017-08-03T09:10:41.663Z,80.40
2017-08-03T09:13:09.174Z,80.40
2017-08-03T09:15:41.063Z,80.90
2017-08-03T09:18:12.282Z,80.90
2017-08-03T09:20:43.792Z,80.00
2017-08-03T09:23:11.296Z,79.60
2017-08-03T09:25:38.816Z,79.70
2017-08-03T09:28:09.219Z,79.90
2017-08-03T09:30:36.741Z,80.60
2017-08-03T09:33:05.072Z,80.40
2017-08-03T09:35:32.574Z,80.50
2017-08-03T09:38:00.122Z,80.00
2017-08-03T09:40:27.666Z,80.90
2017-08-03T09:42:55.172Z,80.60
2017-08-03T09:45:26.983Z,81.10
2017-08-03T09:47:54.509Z,81.70
2017-08-03T09:50:22.106Z,81.80
2017-08-03T09:52:49.618Z,81.60
2017-08-03T09:55:17.125Z,81.10
2017-08-03T09:57:45.580Z,80.50
2017-08-03T10:00:13.237Z,80.40
2017-08-03T10:02:41.006Z,80.60
2017-08-03T10:05:08.551Z,80.70
2017-08-03T10:07:36.067Z,80.80
2017-08-03T10:10:03.596Z,80.00
2017-08-03T10:12:31.112Z,79.50
2017-08-03T10:15:09.339Z,79.70
2017-08-03T10:17:44.460Z,78.20
2017-08-03T10:20:11.984Z,76.90
2017-08-03T10:22:39.527Z,75.50
2017-08-03T10:25:07.155Z,75.30
2017-08-03T10:27:34.916Z,75.60
2017-08-03T10:30:02.711Z,76.50
2017-08-03T10:32:30.219Z,76.80
2017-08-03T10:34:58.637Z,75.90
2017-08-03T10:37:26.198Z,75.80
2017-08-03T10:39:53.704Z,74.60
2017-08-03T10:42:21.208Z,72.70
2017-08-03T10:44:52.647Z,70.00
2017-08-03T10:47:20.168Z,70.10
2017-08-03T10:49:48.811Z,68.40
2017-08-03T10:52:16.489Z,67.70
2017-08-03T10:54:43.990Z,67.90
2017-08-03T10:57:11.537Z,67.80
2017-08-03T10:59:40.099Z,67.20
2017-08-03T11:02:07.677Z,67.10
2017-08-03T11:04:35.490Z,66.50
2017-08-03T11:07:02.997Z,66.20
2017-08-03T11:09:30.551Z,66.40
2017-08-03T11:11:58.062Z,65.40
2017-08-03T11:14:25.572Z,65.50
2017-08-03T11:17:04.680Z,64.40
2017-08-03T11:19:36.124Z,63.90
2017-08-03T11:22:03.631Z,63.90
2017-08-03T11:24:32.045Z,65.20
2017-08-03T11:26:59.580Z,65.10
2017-08-03T11:29:27.082Z,66.40
2017-08-03T11:31:54.615Z,66.80
2017-08-03T11:34:22.152Z,66.20
2017-08-03T11:36:49.652Z,65.00
2017-08-03T11:39:17.251Z,65.00
2017-08-03T11:41:44.751Z,63.80
2017-08-03T11:44:12.811Z,63.00
2017-08-03T11:46:40.323Z,63.20
2017-08-03T11:49:08.036Z,62.40
2017-08-03T11:51:35.602Z,61.20
2017-08-03T11:54:03.514Z,61.00
2017-08-03T11:56:31.022Z,58.80
2017-08-03T11:58:58.588Z,58.70
2017-08-03T12:01:26.107Z,58.60
2017-08-03T12:03:53.672Z,58.70
2017-08-03T12:06:21.235Z,59.00
2017-08-03T12:08:49.514Z,57.30
2017-08-03T12:11:17.066Z,57.30
2017-08-03T12:13:45.327Z,57.30
2017-08-03T12:16:12.940Z,57.30
2017-08-03T12:18:44.589Z,58.10
2017-08-03T12:21:20.645Z,57.90
2017-08-03T12:23:48.228Z,56.80
2017-08-03T12:26:15.798Z,56.00
2017-08-03T12:28:43.304Z,56.60
2017-08-03T12:31:10.802Z,57.30
2017-08-03T12:33:42.847Z,57.70
2017-08-03T12:36:10.391Z,58.30
2017-08-03T12:38:37.891Z,58.70
2017-08-03T12:41:09.837Z,58.90
2017-08-03T12:43:37.340Z,59.50
2017-08-03T12:46:04.891Z,59.60
2017-08-03T12:48:32.452Z,59.60
2017-08-03T12:51:00.576Z,59.30
2017-08-03T12:53:28.076Z,59.30
2017-08-03T12:55:56.045Z,59.10
2017-08-03T12:58:23.579Z,59.20
2017-08-03T13:00:51.108Z,58.90
2017-08-03T13:03:22.155Z,59.20
2017-08-03T13:05:49.667Z,59.30
2017-08-03T13:08:17.212Z,59.00
2017-08-03T13:10:44.788Z,58.40
2017-08-03T13:13:12.284Z,58.10
2017-08-03T13:15:39.828Z,58.10
2017-08-03T13:18:08.104Z,57.70
2017-08-03T13:20:38.975Z,57.70
2017-08-03T13:23:06.475Z,57.00
2017-08-03T13:25:38.494Z,55.60
2017-08-03T13:28:06.016Z,56.00
2017-08-03T13:30:34.360Z,55.80
2017-08-03T13:33:15.924Z,55.80
2017-08-03T13:35:43.492Z,54.90
2017-08-03T13:38:11.004Z,56.40
2017-08-03T13:40:38.503Z,55.00
2017-08-03T13:43:06.044Z,54.60
2017-08-03T13:45:33.779Z,54.10
2017-08-03T13:48:01.579Z,54.90
2017-08-03T13:50:29.111Z,55.90
2017-08-03T13:53:01.203Z,54.30
2017-08-03T13:55:28.804Z,54.30
2017-08-03T13:57:56.734Z,54.40
2017-08-03T14:00:24.246Z,55.50
2017-08-03T14:02:51.771Z,55.10
2017-08-03T14:05:22.495Z,54.30
2017-08-03T14:07:50.004Z,53.00
2017-08-03T14:10:17.565Z,52.00
2017-08-03T14:12:45.246Z,52.30
2017-08-03T14:15:12.821Z,52.60
2017-08-03T14:17:44.278Z,53.40
2017-08-03T14:20:11.800Z,53.40
2017-08-03T14:22:40.389Z,52.60
2017-08-03T14:25:07.897Z,52.60
2017-08-03T14:27:35.401Z,52.50
2017-08-03T14:30:03.140Z,53.10
2017-08-03T14:32:30.640Z,52.80
2017-08-03T14:34:58.144Z,52.90
2017-08-03T14:37:28.844Z,53.00
2017-08-03T14:39:56.407Z,53.60
2017-08-03T14:42:24.092Z,54.20
2017-08-03T14:44:51.624Z,54.00
2017-08-03T14:47:19.199Z,54.20
2017-08-03T14:49:46.719Z,53.70
2017-08-03T14:52:14.215Z,54.10
2017-08-03T14:54:44.780Z,53.50
2017-08-03T14:57:12.290Z,53.60
2017-08-03T14:59:39.830Z,53.30
2017-08-03T15:02:07.340Z,52.70
2017-08-03T15:04:34.835Z,51.40
2017-08-03T15:07:02.644Z,51.10
2017-08-03T15:09:30.140Z,50.50
2017-08-03T15:11:58.880Z,51.40
2017-08-03T15:14:26.391Z,51.30
2017-08-03T15:16:54.879Z,51.60
2017-08-03T15:19:22.384Z,50.80
2017-08-03T15:21:49.923Z,50.20
2017-08-03T15:24:17.459Z,50.00
2017-08-03T15:26:45.155Z,50.30
2017-08-03T15:29:12.816Z,50.90
2017-08-03T15:31:40.343Z,49.90
2017-08-03T15:34:08.635Z,50.80
2017-08-03T15:36:40.024Z,50.80
2017-08-03T15:39:07.577Z,51.90
2017-08-03T15:41:35.327Z,52.80
2017-08-03T15:44:03.951Z,52.90
2017-08-03T15:46:31.465Z,54.30
2017-08-03T15:49:01.995Z,55.00
2017-08-03T15:51:29.505Z,56.30
2017-08-03T15:54:01.238Z,56.80
2017-08-03T15:56:28.953Z,57.10
2017-08-03T15:58:56.446Z,55.80
2017-08-03T16:01:24.192Z,56.10
2017-08-03T16:03:51.756Z,56.40
2017-08-03T16:06:19.283Z,56.30
2017-08-03T16:08:51.186Z,56.00
2017-08-03T16:11:18.748Z,55.80
2017-08-03T16:13:46.276Z,57.90
2017-08-03T16:16:13.858Z,58.50
2017-08-03T16:18:41.424Z,59.30
2017-08-03T16:21:08.931Z,59.00
2017-08-03T16:23:36.819Z,59.40
2017-08-03T16:26:04.327Z,58.80
2017-08-03T16:28:31.827Z,58.80
2017-08-03T16:30:59.389Z,59.30
2017-08-03T16:33:26.919Z,59.90
2017-08-03T16:35:54.410Z,59.00
2017-08-03T16:38:24.961Z,58.60
2017-08-03T16:40:52.982Z,58.60
2017-08-03T16:43:20.475Z,57.20
2017-08-03T16:45:48.867Z,57.40
2017-08-03T16:48:16.377Z,57.90
2017-08-03T16:50:47.774Z,61.90
2017-08-03T16:53:19.322Z,61.30
2017-08-03T16:55:46.923Z,60.30
2017-08-03T16:58:14.458Z,58.70
2017-08-03T17:00:41.951Z,58.50
2017-08-03T17:03:09.498Z,57.90
2017-08-03T17:05:37.007Z,57.00
2017-08-03T17:08:04.599Z,56.60
2017-08-03T17:10:33.163Z,56.90
2017-08-03T17:13:00.704Z,57.90
2017-08-03T17:15:28.520Z,59.00
2017-08-03T17:17:56.026Z,60.30
2017-08-03T17:20:27.252Z,62.30
2017-08-03T17:22:54.772Z,63.50
2017-08-03T17:25:25.970Z,63.40
2017-08-03T17:27:53.492Z,65.60
2017-08-03T17:30:21.040Z,64.70
2017-08-03T17:32:48.599Z,64.40
2017-08-03T17:35:16.099Z,64.60
2017-08-03T17:37:46.916Z,64.30
2017-08-03T17:40:14.479Z,64.00
2017-08-03T17:42:42.792Z,60.50
2017-08-03T17:45:10.305Z,59.80
2017-08-03T17:47:38.283Z,58.60
2017-08-03T17:50:05.902Z,57.60
2017-08-03T17:52:33.437Z,57.10
2017-08-03T17:55:01.303Z,57.10
2017-08-03T17:57:28.813Z,57.50
2017-08-03T17:59:56.357Z,57.80
2017-08-03T18:02:23.997Z,58.20
2017-08-03T18:04:51.512Z,59.20
2017-08-03T18:07:19.964Z,59.80
2017-08-03T18:09:50.657Z,61.10
2017-08-03T18:12:18.167Z,61.90
2017-08-03T18:14:45.979Z,62.60
2017-08-03T18:17:13.625Z,62.60
2017-08-03T18:19:41.171Z,62.70
2017-08-03T18:22:12.595Z,62.80
2017-08-03T18:24:40.100Z,62.80
2017-08-03T18:27:07.780Z,63.30
2017-08-03T18:29:35.549Z,63.30
2017-08-03T18:32:03.168Z,63.20
2017-08-03T18:34:30.818Z,64.10
2017-08-03T18:36:59.087Z,66.10
2017-08-03T18:39:30.449Z,65.60
2017-08-03T18:41:58.050Z,66.70
2017-08-03T18:44:25.544Z,67.30
2017-08-03T18:46:53.087Z,67.90
2017-08-03T18:49:20.595Z,68.40
2017-08-03T18:51:52.180Z,68.90
2017-08-03T18:54:19.688Z,68.90
2017-08-03T18:56:47.314Z,69.10
2017-08-03T18:59:14.859Z,70.10
2017-08-03T19:01:42.398Z,70.40
2017-08-03T19:04:09.949Z,71.30
2017-08-03T19:06:37.555Z,71.50
2017-08-03T19:09:05.137Z,71.90
2017-08-03T19:11:32.780Z,72.20
2017-08-03T19:14:00.284Z,72.40
2017-08-03T19:16:28.581Z,72.80
2017-08-03T19:18:56.706Z,72.80
2017-08-03T19:21:24.248Z,72.70
2017-08-03T19:23:52.162Z,72.30
2017-08-03T19:26:19.790Z,71.60
2017-08-03T19:28:47.656Z,71.40
2017-08-03T19:31:15.220Z,71.50
2017-08-03T19:33:42.861Z,71.60
2017-08-03T19:36:10.473Z,71.30
2017-08-03T19:38:38.064Z,71.20
2017-08-03T19:41:05.576Z,70.80
2017-08-03T19:43:33.168Z,70.70
2017-08-03T19:46:00.716Z,71.40
2017-08-03T19:48:28.232Z,70.50
2017-08-03T19:50:55.762Z,70.20
2017-08-03T19:53:23.255Z,71.10
2017-08-03T19:55:53.740Z,71.30
2017-08-03T19:58:21.289Z,72.50
2017-08-03T20:00:48.888Z,72.20
2017-08-03T20:03:16.447Z,71.30
2017-08-03T20:05:44.184Z,71.60
2017-08-03T20:08:31.315Z,71.70
2017-08-03T20:10:59.332Z,71.40
2017-08-03T20:13:26.873Z,71.30
2017-08-03T20:15:54.409Z,71.30
2017-08-03T20:18:22.050Z,71.60
2017-08-03T20:20:49.626Z,72.50
2017-08-03T20:23:21.001Z,72.70
2017-08-03T20:25:48.517Z,73.10
2017-08-03T20:28:16.194Z,73.50
2017-08-03T20:30:43.739Z,74.00
2017-08-03T20:33:11.275Z,74.60
2017-08-03T20:35:38.867Z,74.60
2017-08-03T20:38:06.627Z,74.60
2017-08-03T20:40:34.130Z,74.60
2017-08-03T20:43:01.656Z,75.30
2017-08-03T20:45:29.298Z,75.30
2017-08-03T20:47:57.168Z,75.50
2017-08-03T20:50:24.824Z,76.10
2017-08-03T20:52:52.599Z,76.40
2017-08-03T20:55:20.112Z,76.80
2017-08-03T20:57:48.395Z,77.20
2017-08-03T21:00:15.951Z,77.10
2017-08-03T21:02:44.274Z,77.50
2017-08-03T21:05:11.821Z,77.50
2017-08-03T21:07:39.348Z,77.80
2017-08-03T21:10:11.039Z,78.20
2017-08-03T21:12:38.543Z,78.20
2017-08-03T21:15:06.267Z,78.40
2017-08-03T21:17:33.795Z,78.40
2017-08-03T21:20:01.485Z,78.50
2017-08-03T21:22:29.046Z,78.80
2017-08-03T21:24:56.547Z,78.40
2017-08-03T21:27:27.027Z,79.20
2017-08-03T21:29:54.667Z,79.30
2017-08-03T21:32:22.208Z,78.60
2017-08-03T21:34:49.769Z,78.40
2017-08-03T21:37:17.276Z,78.10
2017-08-03T21:39:44.784Z,77.80
2017-08-03T21:42:13.178Z,78.00
2017-08-03T21:44:40.743Z,78.00
2017-08-03T21:47:08.307Z,78.30
2017-08-03T21:49:35.825Z,78.80
2017-08-03T21:52:03.375Z,78.80
2017-08-03T21:54:30.898Z,78.90
2017-08-03T21:56:58.494Z,79.00
2017-08-03T21:59:26.807Z,77.60
2017-08-03T22:01:54.359Z,77.60
2017-08-03T22:04:22.970Z,78.30
2017-08-03T22:06:50.541Z,78.20
2017-08-03T22:09:18.199Z,78.70
2017-08-03T22:11:45.704Z,79.30
2017-08-03T22:14:13.301Z,79.80
2017-08-03T22:16:40.834Z,80.10
2017-08-03T22:19:08.340Z,80.20
2017-08-03T22:21:36.072Z,80.30
2017-08-03T22:24:03.787Z,80.10
2017-08-03T22:26:35.001Z,80.10
2017-08-03T22:29:02.507Z,80.20
2017-08-03T22:31:30.018Z,80.40
2017-08-03T22:33:57.564Z,80.30
2017-08-03T22:36:25.087Z,80.50
2017-08-03T22:38:52.867Z,80.20
2017-08-03T22:41:20.380Z,80.30
2017-08-03T22:43:47.906Z,80.40
2017-08-03T22:46:15.733Z,80.30
2017-08-03T22:48:43.654Z,80.00
2017-08-03T22:51:11.175Z,80.20
2017-08-03T22:53:39.465Z,80.60
2017-08-03T22:56:10.988Z,80.60
2017-08-03T22:58:38.496Z,80.70
2017-08-03T23:01:06.437Z,80.80
2017-08-03T23:03:33.968Z,80.80
2017-08-03T23:06:01.794Z,81.00
2017-08-03T23:08:29.333Z,80.90
2017-08-03T23:10:56.915Z,80.70
2017-08-03T23:13:28.963Z,81.30
2017-08-03T23:15:56.529Z,80.50
2017-08-03T23:18:24.159Z,80.00
2017-08-03T23:20:51.678Z,79.40
2017-08-03T23:23:19.675Z,79.20
2017-08-03T23:25:47.224Z,79.40
2017-08-03T23:28:14.732Z,79.40
2017-08-03T23:30:42.315Z,79.70
2017-08-03T23:33:09.839Z,80.40
2017-08-03T23:35:37.339Z,79.20
2017-08-03T23:38:04.863Z,79.40
2017-08-03T23:40:32.756Z,79.30
2017-08-03T23:43:11.967Z,79.40
2017-08-03T23:45:39.481Z,78.80
2017-08-03T23:48:07.015Z,78.80
2017-08-03T23:50:35.519Z,78.40
2017-08-03T23:53:03.087Z,78.20
2017-08-03T23:55:31.377Z,78.60
2017-08-03T23:57:58.899Z,77.90
